KK6DR Weather Reports


time (UTC)temp
C
wind
direction
speed
KPH
gust
KPH
rain 1hr
cm
rain 24hr
cm
rain mn
cm
humidity
%
barometer
mb
20260503180116 17 303 1.6 4.8 0.00 0.00 0.00 74 1010.7
20260503174600 16 9 3.2 8.0 0.00 0.00 0.00 76 1010.8
20260503173110 15 9 3.2 8.0 0.00 0.00 0.00 77 1010.8
20260503171553 15 277 3.2 8.0 0.00 0.00 0.00 79 1010.7
20260503150108 11 142 4.8 14.5 0.00 0.00 0.00 94 1010.2
20260503081557 9 0 0.0 4.8 0.00 0.00 0.00 91 1012.0
20260503080106 10 9 0.0 3.2 0.00 0.00 0.00 91 1012.3
20260503071601 10 0 1.6 4.8 0.00 0.00 0.00 91 1012.7
20260503054600 10 319 0.0 4.8 0.00 0.00 0.00 91 1013.0
20260503053055 10 51 1.6 6.4 0.00 0.00 0.00 91 1013.2
20260503051557 11 9 1.6 6.4 0.00 0.00 0.00 91 1013.1
20260503050057 11 0 1.6 6.4 0.00 0.00 0.00 91 1013.3
20260503044608 11 44 3.2 12.9 0.00 0.00 0.00 91 1013.1
20260503043058 11 15 3.2 8.0 0.00 0.00 0.00 90 1012.8
20260503041600 11 319 3.2 9.7 0.00 0.00 0.00 90 1012.9
20260503034601 11 9 1.6 9.7 0.00 0.00 0.00 89 1012.9
20260503033053 11 19 3.2 9.7 0.00 0.00 0.00 89 1013.1
20260503031554 11 51 3.2 8.0 0.00 0.00 0.00 88 1012.9
20260503030123 11 309 1.6 9.7 0.00 0.00 0.00 87 1013.1
20260503024601 11 291 1.6 9.7 0.00 0.00 0.00 87 1013.0
20260503023056 12 40 1.6 8.0 0.00 0.00 0.00 86 1013.0
20260503021600 12 15 3.2 11.3 0.00 0.00 0.00 85 1012.8
20260503020055 12 328 3.2 9.7 0.00 0.00 0.00 84 1012.9
20260503014604 13 22 3.2 8.0 0.00 0.00 0.00 82 1012.7
20260503013055 13 309 3.2 12.9 0.00 0.00 0.00 81 1012.9
20260503011559 13 245 3.2 9.7 0.00 0.00 0.00 83 1012.9
20260503010106 13 317 1.6 9.7 0.00 0.00 0.00 81 1013.0
20260503004550 13 319 3.2 6.4 0.00 0.00 0.00 81 1013.0
20260503003059 13 286 3.2 8.0 0.00 0.00 0.00 82 1013.0
20260503001552 12 338 3.2 9.7 0.00 0.00 0.00 84 1012.9
20260503000056 12 328 3.2 9.7 0.00 0.00 0.00 84 1013.2
20260502234555 12 317 3.2 9.7 0.00 0.00 0.00 83 1013.1
20260502233054 12 0 3.2 11.3 0.00 0.00 0.00 82 1013.2
20260502231604 13 329 4.8 12.9 0.00 0.00 0.00 80 1013.5
20260502230055 14 336 4.8 8.0 0.00 0.00 0.00 77 1013.7
20260502224600 15 284 3.2 12.9 0.00 0.00 0.00 76 1013.9
20260502223108 15 342 3.2 14.5 0.00 0.00 0.00 75 1014.2
20260502221600 15 335 3.2 12.9 0.00 0.00 0.00 75 1014.2
20260502220056 15 329 4.8 14.5 0.00 0.00 0.00 76 1014.3
20260502214556 15 289 4.8 12.9 0.00 0.00 0.00 78 1014.2
20260502213053 13 334 3.2 12.9 0.00 0.00 0.00 81 1014.4
20260502211555 12 338 3.2 8.0 0.00 0.00 0.00 84 1014.5
20260502210054 12 313 3.2 6.4 0.00 0.00 0.00 84 1014.7
20260502204609 12 329 1.6 9.7 0.00 0.00 0.00 83 1015.0
20260502203113 13 325 3.2 8.0 0.00 0.00 0.00 80 1015.1
20260502201554 13 336 3.2 9.7 0.00 0.00 0.00 81 1015.0
20260502200053 12 330 3.2 9.7 0.00 0.00 0.00 81 1015.2
20260502194556 12 325 3.2 9.7 0.00 0.00 0.00 79 1015.3
20260502193056 13 330 3.2 12.9 0.00 0.00 0.00 78 1015.6
20260502191557 14 67 3.2 12.9 0.00 0.00 0.00 73 1015.5
20260502190054 15 317 3.2 14.5 0.00 0.00 0.00 75 1015.7
20260502184605 14 319 4.8 16.1 0.00 0.00 0.00 75 1015.9
20260502183058 14 48 4.8 14.5 0.00 0.00 0.00 75 1016.0
20260502181611 14 338 4.8 12.9 0.00 0.00 0.00 74 1016.1